In Rescue
 
Open Full Screen Window  High Contrast Mode
Wind Gusting 00 knots
09
May 20, 2019 12:20 PM PDT
Weather Information
Wind Direction
  310 °
Wind Speed
  09 kt (10 mph)
Wind Gust
  00 kt (0 mph)
Altimeter
30.03 in
Visibility
9 SM
Temperature
14° C
57° F
Dewpoint
10° C
50° F
Humidity
77%
1hr Rain Fall
00.00 in.
24hr Rain Fall
00.30 in.
Sky Condition
Broken @ 2,500 ft
MVFR

METAR KHAF 201920Z AUTO 31009KT 9SM BKN025 14/10 A3003 RMK AO2

FAA Disclaimer: The data displayed is for advisory purposes only and is not to be used for flight planning or operations.